Time;durP1;ratioP1;P1;durP2;ratioP2;P2;SDS_P1;SDS_P2;PMS_P1;PMS_P2;Temp;Humidity;BMP_temperature;BMP_pressure;BME280_temperature;BME280_humidity;BME280_pressure;Samples;Min_cycle;Max_cycle;Signal;HPM_P1;HPM_P2
2022/08/30 00:02:20;;;;;;;0.57;0.40;;;;;;;15.49;100.00;101232.25;5212401;28;20032;-77
2022/08/30 00:04:53;;;;;;;0.60;0.40;;;;;;;15.65;100.00;101241.16;5208492;28;20025;-77
2022/08/30 00:07:24;;;;;;;1.95;0.63;;;;;;;15.43;100.00;101240.44;5211945;28;20103;-77
2022/08/30 00:09:54;;;;;;;1.48;0.57;;;;;;;15.21;100.00;101244.91;5204156;28;20037;-77
2022/08/30 00:12:25;;;;;;;0.40;0.38;;;;;;;15.09;100.00;101248.06;5212647;28;20025;-77
2022/08/30 00:14:55;;;;;;;0.93;0.40;;;;;;;15.25;100.00;101247.34;5186555;28;20030;-77
2022/08/30 00:17:25;;;;;;;0.82;0.60;;;;;;;15.01;100.00;101250.19;5204012;28;20051;-77
2022/08/30 00:19:56;;;;;;;0.50;0.50;;;;;;;15.07;100.00;101248.16;5209862;28;20033;-76
2022/08/30 00:22:26;;;;;;;1.55;0.45;;;;;;;15.48;100.00;101241.94;5212563;28;20063;-76
2022/08/30 00:24:59;;;;;;;3.55;0.70;;;;;;;15.64;100.00;101240.31;5208811;28;20033;-77
2022/08/30 00:27:30;;;;;;;1.48;0.55;;;;;;;15.65;100.00;101246.44;5209603;28;20040;-77
2022/08/30 00:30:00;;;;;;;1.40;0.60;;;;;;;15.75;100.00;101240.69;5208447;28;20029;-77
2022/08/30 00:32:31;;;;;;;1.48;0.60;;;;;;;15.74;100.00;101243.41;5193182;28;20028;-77
2022/08/30 00:35:02;;;;;;;1.30;0.60;;;;;;;15.72;100.00;101238.19;5195886;28;20326;-77
2022/08/30 00:37:33;;;;;;;3.03;0.70;;;;;;;15.66;100.00;101249.00;5182249;28;20021;-77
2022/08/30 00:40:05;;;;;;;2.25;0.70;;;;;;;15.70;100.00;101255.84;5204631;28;20179;-77
2022/08/30 00:42:35;;;;;;;3.10;0.85;;;;;;;15.74;100.00;101246.88;5210206;28;20083;-77
2022/08/30 00:45:18;;;;;;;2.00;0.70;;;;;;;15.65;100.00;101257.84;5206387;28;20025;-78
2022/08/30 00:47:50;;;;;;;0.93;0.70;;;;;;;15.66;100.00;101258.69;5206015;28;20035;-77
2022/08/30 00:50:24;;;;;;;1.33;0.60;;;;;;;15.65;100.00;101247.31;5210640;28;20036;-78
2022/08/30 00:52:58;;;;;;;1.23;0.70;;;;;;;15.64;100.00;101245.59;5238201;22;20049;-74
2022/08/30 00:55:29;;;;;;;1.98;0.75;;;;;;;15.58;100.00;101248.53;5224421;28;20033;-74
2022/08/30 00:58:04;;;;;;;1.40;0.70;;;;;;;15.60;100.00;101251.06;5214462;28;20041;-74
2022/08/30 01:00:34;;;;;;;0.90;0.60;;;;;;;15.46;100.00;101240.28;5212572;28;20256;-74
2022/08/30 01:03:07;;;;;;;0.90;0.52;;;;;;;15.51;100.00;101247.06;5209988;28;20044;-74
2022/08/30 01:05:38;;;;;;;1.95;0.88;;;;;;;15.46;100.00;101242.91;5203116;28;20101;-73
2022/08/30 01:08:08;;;;;;;1.85;0.77;;;;;;;15.62;100.00;101242.19;5202712;28;20128;-73
2022/08/30 01:10:38;;;;;;;1.20;0.73;;;;;;;15.59;100.00;101236.19;5203632;28;20025;-74
2022/08/30 01:13:12;;;;;;;1.55;0.80;;;;;;;15.51;100.00;101239.16;5203950;28;20065;-73
2022/08/30 01:15:44;;;;;;;1.40;0.80;;;;;;;15.52;100.00;101246.13;5183947;28;20033;-75
2022/08/30 01:18:16;;;;;;;1.70;0.80;;;;;;;15.39;100.00;101247.59;5199400;28;20064;-75
2022/08/30 01:21:18;;;;;;;3.80;0.90;;;;;;;15.34;100.00;101252.22;5186137;28;20487;-74
2022/08/30 01:23:52;;;;;;;2.03;0.70;;;;;;;15.20;100.00;101251.94;5189565;28;20054;-74
2022/08/30 01:26:25;;;;;;;3.60;1.00;;;;;;;15.14;100.00;101254.84;5202754;28;20028;-74
2022/08/30 01:28:59;;;;;;;2.20;0.88;;;;;;;15.11;100.00;101251.50;5192830;28;20103;-75
2022/08/30 01:31:29;;;;;;;1.65;0.80;;;;;;;14.87;100.00;101258.66;5202834;28;20025;-74
2022/08/30 01:34:00;;;;;;;1.10;0.70;;;;;;;15.06;100.00;101254.34;5203144;28;20049;-75
2022/08/30 01:36:31;;;;;;;1.00;0.60;;;;;;;15.06;100.00;101256.97;5202109;28;20350;-74
2022/08/30 01:39:03;;;;;;;1.98;0.68;;;;;;;15.21;100.00;101244.91;5200701;28;20080;-74
2022/08/30 01:41:34;;;;;;;0.93;0.50;;;;;;;15.17;100.00;101259.97;5172875;28;20018;-74
2022/08/30 01:44:09;;;;;;;0.40;0.40;;;;;;;15.09;100.00;101256.84;5200253;28;20487;-74
2022/08/30 01:46:46;;;;;;;4.30;0.63;;;;;;;15.05;100.00;101264.94;5200430;28;20026;-74
2022/08/30 01:49:18;;;;;;;0.90;0.50;;;;;;;15.03;100.00;101257.09;5190735;28;20391;-75
2022/08/30 01:51:48;;;;;;;2.25;0.60;;;;;;;14.96;100.00;101257.41;5199462;28;20017;-73
2022/08/30 01:54:18;;;;;;;0.75;0.63;;;;;;;15.30;100.00;101250.66;5194331;28;20426;-74
2022/08/30 01:56:49;;;;;;;2.28;0.70;;;;;;;15.24;100.00;101252.69;5193888;28;20155;-74
2022/08/30 01:59:19;;;;;;;3.70;1.00;;;;;;;15.43;100.00;101251.84;5194779;28;20044;-74
2022/08/30 02:01:50;;;;;;;1.20;0.80;;;;;;;15.63;100.00;101257.06;5195365;28;20041;-74
2022/08/30 02:04:20;;;;;;;2.47;1.08;;;;;;;15.75;100.00;101251.25;5198837;28;20482;-74
2022/08/30 02:06:52;;;;;;;1.75;1.15;;;;;;;15.79;100.00;101250.16;5171830;28;20053;-75
2022/08/30 02:09:22;;;;;;;1.67;1.20;;;;;;;15.70;100.00;101250.56;5199676;28;20025;-74
2022/08/30 02:11:53;;;;;;;4.65;1.27;;;;;;;15.95;100.00;101251.16;5192043;28;20033;-74
2022/08/30 02:14:23;;;;;;;1.88;1.23;;;;;;;15.99;100.00;101252.72;5197724;28;20122;-74
2022/08/30 02:16:54;;;;;;;2.58;1.45;;;;;;;16.07;100.00;101250.56;5200245;28;20487;-74
2022/08/30 02:19:24;;;;;;;2.45;1.27;;;;;;;16.08;100.00;101247.00;5201436;28;20494;-74
2022/08/30 02:21:55;;;;;;;2.20;1.38;;;;;;;16.13;100.00;101242.41;5194709;28;20339;-74
2022/08/30 02:24:26;;;;;;;3.65;1.38;;;;;;;16.09;100.00;101240.84;5202417;28;20021;-74
2022/08/30 02:26:56;;;;;;;2.20;1.30;;;;;;;16.06;100.00;101253.31;5200952;28;20040;-74
2022/08/30 02:29:27;;;;;;;2.28;1.33;;;;;;;16.16;100.00;101255.44;5199980;28;20048;-75
2022/08/30 02:31:58;;;;;;;2.95;1.40;;;;;;;16.09;100.00;101248.75;5193689;28;20144;-73
2022/08/30 02:34:28;;;;;;;2.67;1.40;;;;;;;16.14;100.00;101252.00;5194815;28;20022;-75
2022/08/30 02:36:59;;;;;;;2.00;1.10;;;;;;;16.05;100.00;101247.16;5200683;28;20025;-74
2022/08/30 02:39:30;;;;;;;2.85;1.52;;;;;;;16.04;100.00;101245.44;5184282;28;20039;-74
2022/08/30 02:42:00;;;;;;;1.58;1.10;;;;;;;16.00;100.00;101250.94;5201458;28;20394;-74
2022/08/30 02:44:30;;;;;;;3.33;1.50;;;;;;;16.01;100.00;101250.88;5201980;28;20106;-75
2022/08/30 02:47:01;;;;;;;2.20;1.40;;;;;;;16.00;100.00;101238.63;5199366;28;20607;-74
2022/08/30 02:49:31;;;;;;;1.70;1.10;;;;;;;16.00;100.00;101243.03;5188481;28;20536;-74
2022/08/30 02:52:05;;;;;;;2.38;1.30;;;;;;;16.04;100.00;101236.69;5198784;28;20029;-74
2022/08/30 02:54:35;;;;;;;2.10;1.30;;;;;;;16.04;100.00;101242.81;5201753;28;20043;-74
2022/08/30 02:57:07;;;;;;;2.38;1.35;;;;;;;16.03;100.00;101241.09;5200319;28;20033;-74
2022/08/30 02:59:42;;;;;;;2.42;1.52;;;;;;;16.07;100.00;101245.31;5200903;28;20495;-73
2022/08/30 03:02:13;;;;;;;4.72;1.70;;;;;;;15.96;100.00;101237.06;5201626;28;20033;-74
2022/08/30 03:04:44;;;;;;;3.00;1.40;;;;;;;15.68;100.00;101231.34;5201089;28;20605;-75
2022/08/30 03:07:16;;;;;;;3.63;1.75;;;;;;;15.57;100.00;101233.59;5200348;28;20395;-75
2022/08/30 03:09:46;;;;;;;2.03;1.45;;;;;;;15.51;100.00;101228.63;5200762;28;20341;-75
2022/08/30 03:12:16;;;;;;;3.30;1.75;;;;;;;15.76;100.00;101231.88;5201416;28;20049;-75
2022/08/30 03:14:47;;;;;;;2.67;1.55;;;;;;;15.72;100.00;101227.63;5201073;28;20080;-74
2022/08/30 03:17:17;;;;;;;3.53;1.80;;;;;;;15.63;100.00;101235.09;5197429;28;20075;-74
2022/08/30 03:19:48;;;;;;;3.58;1.90;;;;;;;15.76;100.00;101237.13;5192751;28;20033;-74
2022/08/30 03:22:18;;;;;;;2.50;1.80;;;;;;;15.89;100.00;101232.16;5201531;28;20044;-74
2022/08/30 03:24:48;;;;;;;4.20;1.98;;;;;;;15.84;100.00;101242.06;5196020;28;20041;-74
2022/08/30 03:27:19;;;;;;;4.05;2.08;;;;;;;15.76;100.00;101237.13;5189268;28;20530;-74
2022/08/30 03:29:49;;;;;;;3.30;2.72;;;;;;;15.65;100.00;101242.03;5200097;28;20147;-74
2022/08/30 03:32:20;;;;;;;7.18;3.40;;;;;;;15.59;100.00;101242.31;5201014;28;20025;-75
2022/08/30 03:34:50;;;;;;;4.13;3.33;;;;;;;15.64;100.00;101245.59;5200950;28;20048;-74
2022/08/30 03:37:21;;;;;;;8.00;4.40;;;;;;;15.79;100.00;101238.75;5181904;28;20186;-75
2022/08/30 03:39:51;;;;;;;9.23;5.68;;;;;;;15.60;100.00;101244.03;5199990;28;20378;-75
2022/08/30 03:42:21;;;;;;;8.05;5.13;;;;;;;15.69;100.00;101240.97;5200437;28;20022;-74
2022/08/30 03:44:52;;;;;;;10.18;5.60;;;;;;;15.50;100.00;101234.81;5200355;28;20455;-74
2022/08/30 03:47:22;;;;;;;13.90;7.05;;;;;;;15.63;100.00;101233.34;5176704;28;20030;-74
2022/08/30 03:49:53;;;;;;;12.38;7.53;;;;;;;15.56;100.00;101231.91;5187800;28;20042;-74
2022/08/30 03:52:23;;;;;;;12.50;7.82;;;;;;;15.42;100.00;101233.44;5194265;28;20059;-75
2022/08/30 03:54:53;;;;;;;10.70;8.13;;;;;;;15.37;100.00;101235.44;5199927;28;20407;-74
2022/08/30 03:57:24;;;;;;;10.25;7.30;;;;;;;15.37;100.00;101231.03;5198801;28;20025;-74
2022/08/30 03:59:54;;;;;;;16.80;7.47;;;;;;;15.30;100.00;101234.00;5192168;28;20036;-74
2022/08/30 04:02:26;;;;;;;14.43;7.95;;;;;;;15.22;100.00;101231.66;5200774;28;20051;-73
2022/08/30 04:04:56;;;;;;;12.70;7.95;;;;;;;15.37;100.00;101231.03;5199204;28;20525;-74
2022/08/30 04:07:26;;;;;;;12.27;8.18;;;;;;;15.40;100.00;101232.66;5198891;28;20029;-73
2022/08/30 04:09:57;;;;;;;15.57;8.32;;;;;;;15.35;100.00;101238.13;5197608;28;20422;-74
2022/08/30 04:12:27;;;;;;;11.43;8.23;;;;;;;15.37;100.00;101238.91;5182022;28;20029;-75
2022/08/30 04:14:57;;;;;;;12.65;8.52;;;;;;;15.38;100.00;101242.44;5200303;28;20120;-74
2022/08/30 04:17:28;;;;;;;9.95;8.13;;;;;;;15.42;100.00;101239.59;5195182;28;20516;-72
2022/08/30 04:19:58;;;;;;;15.43;7.53;;;;;;;15.30;100.00;101242.75;5174903;28;20063;-74
2022/08/30 04:22:28;;;;;;;9.80;8.18;;;;;;;15.41;100.00;101243.16;5199993;28;20021;-74
2022/08/30 04:24:59;;;;;;;13.50;8.50;;;;;;;15.23;100.00;101249.19;5200218;28;20032;-75
2022/08/30 04:27:29;;;;;;;12.93;8.10;;;;;;;15.35;100.00;101251.31;5198243;28;20065;-74
2022/08/30 04:30:00;;;;;;;13.60;8.25;;;;;;;15.27;100.00;101249.91;5198914;28;20037;-75
2022/08/30 04:32:32;;;;;;;14.05;8.70;;;;;;;15.12;100.00;101259.34;5199700;28;20069;-74
2022/08/30 04:35:04;;;;;;;22.48;7.93;;;;;;;15.26;100.00;101264.88;5200040;28;20037;-74
2022/08/30 04:37:36;;;;;;;8.85;7.18;;;;;;;15.34;100.00;101261.94;5190963;28;20025;-74
2022/08/30 04:40:08;;;;;;;23.00;7.50;;;;;;;15.29;100.00;101266.53;5170785;28;20022;-74
2022/08/30 04:42:39;;;;;;;11.18;7.75;;;;;;;15.29;100.00;101270.03;5185560;28;20061;-75
2022/08/30 04:45:13;;;;;;;10.02;7.75;;;;;;;15.14;100.00;101275.91;5199688;28;20038;-74
2022/08/30 04:47:44;;;;;;;10.52;7.82;;;;;;;15.14;100.00;101280.31;5184255;28;20057;-73
2022/08/30 04:50:17;;;;;;;13.27;8.20;;;;;;;15.18;100.00;101282.75;5189781;28;20037;-74
2022/08/30 04:52:47;;;;;;;12.68;8.65;;;;;;;15.04;100.00;101285.13;5186509;28;20454;-74
2022/08/30 04:55:18;;;;;;;12.80;9.55;;;;;;;15.13;100.00;101287.38;5188706;28;20025;-74
2022/08/30 04:57:49;;;;;;;14.45;8.55;;;;;;;15.03;100.00;101290.47;5198371;28;20033;-74
2022/08/30 05:00:19;;;;;;;12.55;9.00;;;;;;;15.13;100.00;101291.78;5199645;28;20079;-75
2022/08/30 05:02:50;;;;;;;20.05;9.25;;;;;;;15.06;100.00;101293.84;5199064;28;20108;-74
2022/08/30 05:05:38;;;;;;;12.65;9.43;;;;;;;15.07;100.00;101294.69;5199464;28;20021;-75
2022/08/30 05:08:13;;;;;;;14.85;9.02;;;;;;;15.10;100.00;101295.41;5194462;28;20424;-73
2022/08/30 05:10:46;;;;;;;14.50;9.07;;;;;;;15.19;100.00;101302.91;5199247;28;20376;-74
2022/08/30 05:13:19;;;;;;;15.18;9.50;;;;;;;15.16;100.00;101302.19;5199586;28;20189;-74
2022/08/30 05:15:49;;;;;;;13.77;9.13;;;;;;;15.26;100.00;101316.66;5198987;28;20029;-75
2022/08/30 05:18:20;;;;;;;17.95;9.13;;;;;;;15.12;100.00;101312.00;5196886;28;20036;-74
2022/08/30 05:21:15;;;;;;;12.50;9.02;;;;;;;15.21;100.00;101323.91;5198811;28;20409;-75
2022/08/30 05:23:46;;;;;;;12.75;8.88;;;;;;;15.18;100.00;101319.63;5196874;28;20037;-74
2022/08/30 05:26:22;;;;;;;15.55;9.75;;;;;;;15.25;100.00;101321.09;5198546;28;20037;-74
2022/08/30 05:28:53;;;;;;;13.75;8.57;;;;;;;15.27;100.00;101323.66;5198024;28;20563;-74
2022/08/30 05:31:30;;;;;;;12.55;8.25;;;;;;;15.27;100.00;101328.91;5199384;28;20240;-74
2022/08/30 05:34:01;;;;;;;13.02;8.18;;;;;;;15.16;100.00;101318.00;5174690;28;20422;-75
2022/08/30 05:36:34;;;;;;;12.88;8.52;;;;;;;15.37;100.00;101314.47;5196728;28;20542;-72
2022/08/30 05:39:07;;;;;;;15.18;9.73;;;;;;;15.40;100.00;101320.44;5201731;28;20033;-74
2022/08/30 05:41:38;;;;;;;13.93;8.80;;;;;;;15.52;100.00;101319.91;5199651;28;20048;-73
2022/08/30 05:44:09;;;;;;;14.93;9.10;;;;;;;15.35;100.00;101322.44;5200875;28;20518;-73
2022/08/30 05:46:44;;;;;;;15.55;9.18;;;;;;;15.36;100.00;101324.13;5197606;28;20060;-73
2022/08/30 05:49:15;;;;;;;17.08;9.68;;;;;;;15.36;100.00;101316.25;5187552;28;20041;-74
2022/08/30 05:51:45;;;;;;;13.65;8.73;;;;;;;15.49;100.00;101317.44;5191289;28;20442;-74
2022/08/30 05:54:16;;;;;;;15.13;9.18;;;;;;;15.58;100.00;101309.13;5198601;28;20021;-73
2022/08/30 05:56:46;;;;;;;15.40;9.52;;;;;;;15.39;100.00;101324.00;5199979;28;20028;-73
2022/08/30 05:59:16;;;;;;;15.93;9.20;;;;;;;15.37;100.00;101314.47;5200340;28;20645;-74
2022/08/30 06:01:47;;;;;;;14.00;9.88;;;;;;;15.39;100.00;101324.00;5200720;28;20048;-73
2022/08/30 06:04:17;;;;;;;14.90;9.27;;;;;;;15.64;100.00;101329.94;5200848;28;20435;-73
2022/08/30 06:06:48;;;;;;;17.92;10.13;;;;;;;15.71;100.00;101331.34;5183697;28;20049;-74
2022/08/30 06:09:19;;;;;;;15.65;9.30;;;;;;;15.71;100.00;101319.97;5201395;28;20395;-74
2022/08/30 06:11:49;;;;;;;14.82;9.50;;;;;;;15.50;100.00;101327.03;5202418;28;20032;-74
2022/08/30 06:14:20;;;;;;;17.50;10.13;;;;;;;15.41;100.00;101321.31;5181679;28;20120;-74
2022/08/30 06:16:50;;;;;;;16.15;9.95;;;;;;;15.60;100.00;101315.19;5192754;28;20037;-73
2022/08/30 06:19:22;;;;;;;17.25;9.98;;;;;;;15.73;100.00;101320.75;5192103;28;20025;-74
2022/08/30 06:21:52;;;;;;;17.02;10.07;;;;;;;15.80;100.00;101320.41;5184447;28;20048;-73
2022/08/30 06:24:22;;;;;;;16.40;9.70;;;;;;;15.77;100.00;101323.19;5194454;28;20104;-74
2022/08/30 06:26:53;;;;;;;16.30;9.57;;;;;;;15.56;100.00;101332.03;5189475;28;20040;-73
2022/08/30 06:29:23;;;;;;;18.40;9.90;;;;;;;15.64;100.00;101324.66;5201698;28;20036;-74
2022/08/30 06:31:56;;;;;;;17.42;10.13;;;;;;;15.90;100.00;101320.84;5188820;28;20037;-74
2022/08/30 06:34:27;;;;;;;16.20;9.63;;;;;;;16.00;100.00;101327.41;5195884;28;20039;-74
2022/08/30 06:36:57;;;;;;;16.88;9.90;;;;;;;16.04;100.00;101324.56;5200585;28;20947;-73
2022/08/30 06:39:27;;;;;;;17.55;10.52;;;;;;;15.96;100.00;101333.75;5202000;28;20039;-74
2022/08/30 06:41:57;;;;;;;20.25;10.52;;;;;;;15.88;100.00;101326.19;5202013;28;20116;-74
2022/08/30 06:44:28;;;;;;;15.48;9.75;;;;;;;16.05;100.00;101328.91;5201986;28;20113;-73
2022/08/30 06:46:58;;;;;;;17.85;9.43;;;;;;;16.05;100.00;101330.72;5199528;28;20022;-72
2022/08/30 06:49:29;;;;;;;16.38;9.90;;;;;;;16.02;100.00;101331.69;5188040;28;20040;-73
2022/08/30 06:51:59;;;;;;;14.82;9.45;;;;;;;16.28;100.00;101328.72;5198862;28;20120;-74
2022/08/30 06:54:29;;;;;;;13.77;8.02;;;;;;;16.50;100.00;101328.56;5201925;28;20030;-73
2022/08/30 06:57:00;;;;;;;12.02;8.20;;;;;;;16.25;100.00;101336.75;5201570;28;20041;-73
2022/08/30 06:59:31;;;;;;;14.48;8.32;;;;;;;16.30;100.00;101332.16;5183812;28;20402;-73
2022/08/30 07:02:02;;;;;;;10.93;7.15;;;;;;;16.37;100.00;101333.59;5200961;28;20025;-74
2022/08/30 07:04:33;;;;;;;9.82;6.53;;;;;;;16.46;100.00;101332.28;5201489;28;20109;-73
2022/08/30 07:07:04;;;;;;;10.30;6.85;;;;;;;16.74;100.00;101328.25;5199961;28;20106;-73
2022/08/30 07:09:34;;;;;;;13.15;7.07;;;;;;;17.08;100.00;101334.44;5200544;28;20512;-73
2022/08/30 07:12:05;;;;;;;12.02;7.20;;;;;;;17.27;100.00;101331.72;5183051;28;20541;-73
2022/08/30 07:14:36;;;;;;;11.70;6.20;;;;;;;17.19;100.00;101332.13;5182114;28;20077;-73
2022/08/30 07:18:49;;;;;;;9.15;6.07;;;;;;;17.22;100.00;101334.63;5198628;28;20503;-73
2022/08/30 07:19:58;;;;;;;11.57;6.40;;;;;;;17.67;100.00;101337.53;5193062;28;20036;-73
2022/08/30 07:22:28;;;;;;;9.20;6.07;;;;;;;17.42;100.00;101334.47;5200634;28;20026;-72
2022/08/30 07:24:58;;;;;;;9.40;6.30;;;;;;;17.53;100.00;101329.50;5201263;28;20057;-73
2022/08/30 07:27:29;;;;;;;11.40;6.40;;;;;;;18.16;100.00;101338.44;5199659;28;20376;-73
2022/08/30 07:30:01;;;;;;;9.63;5.85;;;;;;;18.33;100.00;101341.06;5182384;28;20042;-73
2022/08/30 07:32:31;;;;;;;8.95;5.57;;;;;;;18.21;100.00;101345.16;5200080;28;20021;-73
2022/08/30 07:35:02;;;;;;;9.77;6.03;;;;;;;18.33;100.00;101349.00;5198791;28;20539;-73
2022/08/30 07:37:32;;;;;;;11.82;6.20;;;;;;;18.11;100.00;101351.91;5199053;28;20029;-73
2022/08/30 07:40:03;;;;;;;9.02;6.03;;;;;;;18.05;100.00;101343.44;5199891;28;20044;-73
2022/08/30 07:42:33;;;;;;;10.52;6.85;;;;;;;17.83;100.00;101346.38;5200116;28;20021;-72
2022/08/30 07:45:04;;;;;;;9.05;5.38;;;;;;;18.24;100.00;101352.09;5200182;28;20034;-71
2022/08/30 07:47:35;;;;;;;15.32;5.97;;;;;;;18.27;100.00;101344.00;5177784;28;20033;-74
2022/08/30 07:50:06;;;;;;;9.93;6.47;;;;;;;17.50;100.00;101349.94;5175406;28;20041;-74
2022/08/30 07:52:38;;;;;;;9.57;5.78;;;;;;;17.77;100.00;101349.34;5199714;28;20111;-74
2022/08/30 07:55:08;;;;;;;11.13;6.30;;;;;;;17.76;100.00;101354.72;5200838;28;20621;-74
2022/08/30 07:57:39;;;;;;;12.43;7.00;;;;;;;17.63;100.00;101356.31;5199556;28;20104;-74
2022/08/30 08:00:09;;;;;;;7.93;5.35;;;;;;;17.49;100.00;101362.28;5180135;28;20026;-74
2022/08/30 08:02:41;;;;;;;9.60;4.50;;;;;;;17.91;100.00;101353.91;5185429;28;20026;-74
2022/08/30 08:05:13;;;;;;;5.47;3.67;;;;;;;18.12;100.00;101350.09;5186280;28;20403;-75
2022/08/30 08:07:43;;;;;;;5.90;3.50;;;;;;;17.82;100.00;101355.25;5199136;28;20032;-74
2022/08/30 08:10:14;;;;;;;4.93;3.20;;;;;;;18.01;100.00;101352.50;5199838;28;20499;-74
2022/08/30 08:12:45;;;;;;;3.97;2.80;;;;;;;18.34;100.00;101354.19;5200652;28;20455;-74
2022/08/30 08:15:16;;;;;;;5.22;2.50;;;;;;;17.95;100.00;101355.44;5200310;28;20110;-75
2022/08/30 08:17:46;;;;;;;3.80;2.50;;;;;;;18.17;100.00;101356.88;5193244;28;20079;-73
2022/08/30 08:20:16;;;;;;;5.00;2.30;;;;;;;18.45;100.00;101353.59;5192624;28;20104;-74
2022/08/30 08:22:47;;;;;;;4.15;2.40;;;;;;;18.54;100.00;101355.75;5198589;28;20033;-73
2022/08/30 08:25:18;;;;;;;5.30;3.20;;;;;;;18.75;100.00;101363.34;5178929;28;20407;-74
2022/08/30 08:27:50;;;;;;;5.38;2.97;;;;;;;18.78;100.00;101365.81;5188527;28;20041;-73
2022/08/30 08:30:21;;;;;;;4.90;2.55;;;;;;;18.63;100.00;101365.81;5189070;28;20394;-74
2022/08/30 08:32:52;;;;;;;4.90;2.75;;;;;;;18.54;100.00;101366.34;5198024;28;20026;-75
2022/08/30 08:35:22;;;;;;;4.15;2.85;;;;;;;18.44;100.00;101368.66;5196469;28;20095;-74
2022/08/30 08:37:52;;;;;;;4.30;2.60;;;;;;;18.59;100.00;101364.28;5183455;28;20040;-74
2022/08/30 08:40:23;;;;;;;4.43;2.60;;;;;;;18.63;100.00;101364.03;5198311;28;20382;-73
2022/08/30 08:43:01;;;;;;;4.43;2.47;;;;;;;18.46;100.00;101372.06;5199161;28;20124;-74
2022/08/30 08:45:41;;;;;;;5.43;2.63;;;;;;;18.54;100.00;101361.03;5192582;28;20391;-74
2022/08/30 08:48:24;;;;;;;3.65;2.30;;;;;;;18.53;100.00;101361.97;5191985;28;20034;-73
2022/08/30 08:53:52;;;;;;;3.20;2.00;;;;;;;18.85;98.08;101373.34;5199486;28;20039;-74
2022/08/30 08:56:22;;;;;;;6.68;2.00;;;;;;;18.75;99.91;101369.47;5199464;28;20028;-74
2022/08/30 08:58:55;;;;;;;2.47;1.50;;;;;;;19.15;96.02;101360.97;5198585;28;20033;-75
2022/08/30 09:01:29;;;;;;;5.25;1.50;;;;;;;18.50;99.42;101364.81;5191573;28;20052;-74
2022/08/30 09:04:09;;;;;;;2.78;1.90;;;;;;;18.53;98.52;101369.94;5199289;28;20140;-74
2022/08/30 09:06:56;;;;;;;1.50;1.30;;;;;;;18.96;95.43;101359.47;5198244;28;20152;-73
2022/08/30 09:09:36;;;;;;;3.17;1.40;;;;;;;18.74;96.86;101367.78;5192219;28;20644;-74
2022/08/30 09:12:09;;;;;;;1.90;1.33;;;;;;;19.00;96.10;101368.94;5200836;28;20029;-74
2022/08/30 09:14:46;;;;;;;1.70;1.13;;;;;;;19.52;93.90;101368.50;5203577;28;20112;-74
2022/08/30 09:17:19;;;;;;;1.92;1.25;;;;;;;18.87;94.62;101376.75;5200339;28;20086;-74
2022/08/30 09:19:53;;;;;;;1.88;1.25;;;;;;;19.13;93.68;101375.25;5195582;28;20406;-74
2022/08/30 09:22:34;;;;;;;2.25;1.40;;;;;;;19.57;93.21;101371.72;5202872;28;20126;-74
2022/08/30 09:25:12;;;;;;;4.43;1.73;;;;;;;19.40;93.35;101371.00;5193324;28;20026;-74
2022/08/30 09:27:44;;;;;;;2.42;1.40;;;;;;;18.79;96.13;101373.66;5191670;28;20403;-74
2022/08/30 09:30:24;;;;;;;2.10;1.42;;;;;;;19.49;93.09;101367.81;5202974;28;20035;-74
2022/08/30 09:33:04;;;;;;;3.42;1.70;;;;;;;19.25;93.19;101367.47;5195389;28;20029;-74
2022/08/30 09:35:41;;;;;;;2.20;1.50;;;;;;;19.54;93.26;101369.25;5202594;28;20026;-73
2022/08/30 09:38:39;;;;;;;2.20;1.35;;;;;;;19.97;88.68;101359.56;5201841;28;20502;-74
2022/08/30 09:41:36;;;;;;;2.08;1.35;;;;;;;20.29;89.24;101348.66;5199032;28;20041;-74
2022/08/30 09:44:16;;;;;;;1.92;1.10;;;;;;;21.22;84.18;101351.34;5198381;28;20038;-74
2022/08/30 09:47:00;;;;;;;2.30;1.20;;;;;;;21.54;83.62;101359.81;5201201;28;20446;-74
2022/08/30 09:49:37;;;;;;;2.00;1.20;;;;;;;21.91;80.77;101365.16;5174243;28;20386;-74
2022/08/30 09:52:26;;;;;;;1.67;1.27;;;;;;;21.73;80.68;101362.94;5198210;28;20029;-74
2022/08/30 09:55:15;;;;;;;2.80;1.15;;;;;;;21.31;81.43;101357.84;5195490;28;20495;-74
2022/08/30 09:58:08;;;;;;;1.08;0.90;;;;;;;21.87;81.77;101360.16;5200902;28;20029;-73
2022/08/30 10:00:59;;;;;;;1.50;1.00;;;;;;;22.17;78.89;101350.91;5197998;28;20117;-74
2022/08/30 10:03:42;;;;;;;1.35;0.90;;;;;;;21.65;80.64;101357.28;5186372;28;20033;-74
2022/08/30 10:06:44;;;;;;;1.40;1.10;;;;;;;21.82;79.38;101352.50;5200257;28;20037;-73
2022/08/30 10:09:15;;;;;;;2.10;0.90;;;;;;;21.95;81.96;101347.19;5198068;28;20474;-74
2022/08/30 10:11:53;;;;;;;2.27;0.90;;;;;;;22.33;79.96;101345.31;5188874;28;20041;-73
2022/08/30 10:14:39;;;;;;;1.85;1.10;;;;;;;22.63;76.74;101337.81;5193443;28;20323;-74
2022/08/30 10:17:29;;;;;;;1.63;0.70;;;;;;;22.39;76.82;101335.09;5178680;28;20025;-74
2022/08/30 10:20:15;;;;;;;3.42;0.70;;;;;;;21.79;78.99;101335.91;5199571;28;20099;-73
2022/08/30 10:23:03;;;;;;;3.45;1.08;;;;;;;20.92;82.09;101339.22;5202314;28;20025;-73
2022/08/30 10:25:40;;;;;;;1.45;0.80;;;;;;;21.54;80.16;101330.56;5196674;28;20495;-73
2022/08/30 10:28:39;;;;;;;1.70;0.90;;;;;;;21.35;80.89;101332.72;5199955;28;20037;-73
2022/08/30 10:31:18;;;;;;;2.78;0.90;;;;;;;20.80;82.57;101334.69;5198417;28;20030;-74
2022/08/30 10:33:53;;;;;;;1.38;0.90;;;;;;;21.33;80.07;101329.31;5201772;28;20033;-74
2022/08/30 10:36:32;;;;;;;1.83;0.90;;;;;;;20.83;81.09;101323.84;5193494;28;20029;-74
2022/08/30 10:39:04;;;;;;;1.75;0.70;;;;;;;21.34;80.83;101325.72;5201166;28;20034;-74
2022/08/30 10:41:38;;;;;;;2.15;0.70;;;;;;;21.69;79.58;101321.50;5200551;28;20057;-74
2022/08/30 10:44:22;;;;;;;0.98;0.77;;;;;;;22.23;77.22;101321.16;5197484;28;20037;-73
2022/08/30 10:47:19;;;;;;;1.63;0.90;;;;;;;22.44;77.56;101329.44;5199856;28;20021;-74
2022/08/30 10:49:56;;;;;;;2.53;0.70;;;;;;;22.68;76.79;101321.34;5199904;28;20506;-74
2022/08/30 10:52:36;;;;;;;1.75;0.70;;;;;;;22.81;74.82;101316.81;5193963;28;20033;-74
2022/08/30 10:55:14;;;;;;;1.88;0.70;;;;;;;22.22;75.37;101321.28;5201469;28;20022;-74
2022/08/30 10:57:45;;;;;;;2.42;0.85;;;;;;;22.12;75.86;101322.88;5199430;28;20083;-74
2022/08/30 11:00:41;;;;;;;3.08;0.70;;;;;;;22.33;75.19;101324.00;5183202;28;20021;-74
2022/08/30 11:03:50;;;;;;;3.10;1.00;;;;;;;22.48;75.25;101313.13;5180069;28;20558;-74
2022/08/30 11:06:30;;;;;;;0.93;0.63;;;;;;;22.76;75.10;101318.13;5180972;28;20131;-74
2022/08/30 11:09:36;;;;;;;1.33;0.60;;;;;;;22.29;75.52;101310.03;5196941;28;20132;-73
2022/08/30 11:12:15;;;;;;;4.60;0.90;;;;;;;21.92;76.56;101318.13;5171954;28;20041;-74
2022/08/30 11:14:46;;;;;;;3.65;0.73;;;;;;;22.01;76.87;101320.13;5199142;28;20034;-73
2022/08/30 11:17:38;;;;;;;1.75;0.63;;;;;;;21.33;76.51;101318.69;5199401;28;20025;-74
2022/08/30 11:20:27;;;;;;;3.25;0.80;;;;;;;21.58;75.69;101321.38;5196825;28;20411;-74
2022/08/30 11:23:18;;;;;;;2.78;0.50;;;;;;;21.80;76.85;101305.66;5193367;28;20029;-73
2022/08/30 11:25:54;;;;;;;0.93;0.55;;;;;;;21.68;77.03;101298.53;5200854;28;20049;-74
2022/08/30 11:28:33;;;;;;;1.02;0.60;;;;;;;22.04;75.15;101301.25;5190968;28;20395;-73
2022/08/30 11:31:04;;;;;;;1.30;0.70;;;;;;;22.15;74.20;101296.88;5200421;28;20037;-74
2022/08/30 11:33:43;;;;;;;0.88;0.50;;;;;;;22.35;74.43;101295.44;5200828;28;20028;-73
2022/08/30 11:36:30;;;;;;;1.20;0.70;;;;;;;22.12;74.70;101288.25;5200669;28;20179;-74
2022/08/30 11:39:09;;;;;;;2.22;0.77;;;;;;;22.46;75.74;101287.53;5193382;28;20041;-74
2022/08/30 11:41:45;;;;;;;1.58;0.60;;;;;;;22.40;74.20;101291.50;5199398;28;20029;-73
2022/08/30 11:44:21;;;;;;;0.95;0.55;;;;;;;22.46;74.16;101293.72;5200577;28;20274;-74
2022/08/30 11:46:59;;;;;;;2.33;0.80;;;;;;;22.59;72.27;101281.19;5198962;28;20037;-74
2022/08/30 11:49:55;;;;;;;0.65;0.60;;;;;;;22.50;69.46;101273.03;5197226;28;20040;-74
2022/08/30 11:52:28;;;;;;;1.63;0.88;;;;;;;22.27;69.16;101277.34;5192089;28;20025;-74